Terminal Aerodrome Forecast
Issued by NWS Shreveport, LA

Home | Current Version | Previous Version | Text Only | Print | Product List | Glossary On
Versions: 1 2 3 4 5 6 7 8 9 10 11 12 13
000
FTUS44 KSHV 261700
TAFLFK
TAF
KLFK 261720Z 2618/2718 26013G18KT P6SM SKC
     FM262300 32005KT P6SM SKC
     FM270400 35004KT P6SM SKC
     FM271500 03004KT P6SM SKC=

USA.gov is the U.S. government's official web portal to all federal, state and local government web resources and services.